sensor_id;sensor_type;location;lat;lon;timestamp;P1;durP1;ratioP1;P2;durP2;ratioP2
76310;SDS011;65120;59.304;18.294;2023-12-20T00:01:02;5.07;;;0.63;;
76310;SDS011;65120;59.304;18.294;2023-12-20T00:03:29;4.68;;;0.77;;
76310;SDS011;65120;59.304;18.294;2023-12-20T00:05:56;7.18;;;0.55;;
76310;SDS011;65120;59.304;18.294;2023-12-20T00:08:23;9.35;;;0.43;;
76310;SDS011;65120;59.304;18.294;2023-12-20T00:10:50;8.15;;;0.45;;
76310;SDS011;65120;59.304;18.294;2023-12-20T00:13:17;5.28;;;0.28;;
76310;SDS011;65120;59.304;18.294;2023-12-20T00:15:46;5.65;;;0.32;;
76310;SDS011;65120;59.304;18.294;2023-12-20T00:18:13;6.53;;;0.43;;
76310;SDS011;65120;59.304;18.294;2023-12-20T00:20:39;3.05;;;0.30;;
76310;SDS011;65120;59.304;18.294;2023-12-20T00:23:06;12.32;;;0.57;;
76310;SDS011;65120;59.304;18.294;2023-12-20T00:25:34;8.60;;;0.52;;
76310;SDS011;65120;59.304;18.294;2023-12-20T00:28:01;9.05;;;0.32;;
76310;SDS011;65120;59.304;18.294;2023-12-20T00:30:28;6.80;;;0.45;;
76310;SDS011;65120;59.304;18.294;2023-12-20T00:32:56;3.67;;;0.30;;
76310;SDS011;65120;59.304;18.294;2023-12-20T00:35:23;6.07;;;0.80;;
76310;SDS011;65120;59.304;18.294;2023-12-20T00:37:50;8.90;;;0.40;;
76310;SDS011;65120;59.304;18.294;2023-12-20T00:40:17;19.70;;;1.85;;
76310;SDS011;65120;59.304;18.294;2023-12-20T00:42:44;9.20;;;0.47;;
76310;SDS011;65120;59.304;18.294;2023-12-20T00:45:12;9.48;;;1.05;;
76310;SDS011;65120;59.304;18.294;2023-12-20T00:47:39;3.58;;;0.40;;
76310;SDS011;65120;59.304;18.294;2023-12-20T00:50:08;11.60;;;0.60;;
76310;SDS011;65120;59.304;18.294;2023-12-20T00:52:35;2.28;;;0.77;;
76310;SDS011;65120;59.304;18.294;2023-12-20T00:55:03;7.45;;;0.40;;
76310;SDS011;65120;59.304;18.294;2023-12-20T00:57:30;12.48;;;0.35;;
76310;SDS011;65120;59.304;18.294;2023-12-20T00:59:57;5.40;;;0.73;;
76310;SDS011;65120;59.304;18.294;2023-12-20T01:02:24;6.78;;;0.40;;
76310;SDS011;65120;59.304;18.294;2023-12-20T01:04:51;5.75;;;0.30;;
76310;SDS011;65120;59.304;18.294;2023-12-20T01:07:19;11.00;;;0.90;;
76310;SDS011;65120;59.304;18.294;2023-12-20T01:09:46;9.48;;;0.63;;
76310;SDS011;65120;59.304;18.294;2023-12-20T01:12:13;11.07;;;0.60;;
76310;SDS011;65120;59.304;18.294;2023-12-20T01:14:41;5.07;;;0.20;;
76310;SDS011;65120;59.304;18.294;2023-12-20T01:17:08;7.05;;;0.40;;
76310;SDS011;65120;59.304;18.294;2023-12-20T01:19:35;4.95;;;0.35;;
76310;SDS011;65120;59.304;18.294;2023-12-20T01:22:02;8.00;;;0.40;;
76310;SDS011;65120;59.304;18.294;2023-12-20T01:24:30;12.57;;;0.60;;
76310;SDS011;65120;59.304;18.294;2023-12-20T01:26:57;8.40;;;0.52;;
76310;SDS011;65120;59.304;18.294;2023-12-20T01:29:24;9.60;;;0.82;;
76310;SDS011;65120;59.304;18.294;2023-12-20T01:31:51;6.75;;;0.30;;
76310;SDS011;65120;59.304;18.294;2023-12-20T01:34:18;5.47;;;0.25;;
76310;SDS011;65120;59.304;18.294;2023-12-20T01:36:45;10.13;;;0.88;;
76310;SDS011;65120;59.304;18.294;2023-12-20T01:39:12;6.43;;;0.50;;
76310;SDS011;65120;59.304;18.294;2023-12-20T01:41:41;6.97;;;0.30;;
76310;SDS011;65120;59.304;18.294;2023-12-20T01:44:08;8.10;;;0.40;;
76310;SDS011;65120;59.304;18.294;2023-12-20T01:46:35;10.95;;;0.70;;
76310;SDS011;65120;59.304;18.294;2023-12-20T01:49:02;12.40;;;1.48;;
76310;SDS011;65120;59.304;18.294;2023-12-20T01:51:29;5.82;;;0.30;;
76310;SDS011;65120;59.304;18.294;2023-12-20T01:53:56;7.53;;;0.50;;
76310;SDS011;65120;59.304;18.294;2023-12-20T01:56:25;3.97;;;0.30;;
76310;SDS011;65120;59.304;18.294;2023-12-20T01:58:56;14.02;;;1.25;;
76310;SDS011;65120;59.304;18.294;2023-12-20T02:01:24;4.30;;;0.30;;
76310;SDS011;65120;59.304;18.294;2023-12-20T02:03:53;8.30;;;0.45;;
76310;SDS011;65120;59.304;18.294;2023-12-20T02:06:21;8.00;;;1.23;;
76310;SDS011;65120;59.304;18.294;2023-12-20T02:08:49;4.25;;;0.22;;
76310;SDS011;65120;59.304;18.294;2023-12-20T02:11:16;6.45;;;0.50;;
76310;SDS011;65120;59.304;18.294;2023-12-20T02:13:43;4.07;;;0.40;;
76310;SDS011;65120;59.304;18.294;2023-12-20T02:16:12;6.25;;;1.08;;
76310;SDS011;65120;59.304;18.294;2023-12-20T02:18:39;9.82;;;0.60;;
76310;SDS011;65120;59.304;18.294;2023-12-20T02:21:06;8.70;;;0.40;;
76310;SDS011;65120;59.304;18.294;2023-12-20T02:23:34;6.60;;;0.30;;
76310;SDS011;65120;59.304;18.294;2023-12-20T02:26:01;5.80;;;0.60;;
76310;SDS011;65120;59.304;18.294;2023-12-20T02:28:29;9.90;;;0.40;;
76310;SDS011;65120;59.304;18.294;2023-12-20T02:30:57;7.72;;;0.50;;
76310;SDS011;65120;59.304;18.294;2023-12-20T02:33:24;3.33;;;0.45;;
76310;SDS011;65120;59.304;18.294;2023-12-20T02:35:50;7.80;;;0.52;;
76310;SDS011;65120;59.304;18.294;2023-12-20T02:38:17;8.52;;;1.17;;
76310;SDS011;65120;59.304;18.294;2023-12-20T02:40:46;6.95;;;0.32;;
76310;SDS011;65120;59.304;18.294;2023-12-20T02:43:13;6.13;;;0.65;;
76310;SDS011;65120;59.304;18.294;2023-12-20T02:45:40;5.93;;;0.70;;
76310;SDS011;65120;59.304;18.294;2023-12-20T02:48:07;12.45;;;0.35;;
76310;SDS011;65120;59.304;18.294;2023-12-20T02:50:33;14.70;;;0.65;;
76310;SDS011;65120;59.304;18.294;2023-12-20T02:53:00;13.60;;;0.63;;
76310;SDS011;65120;59.304;18.294;2023-12-20T02:55:27;4.68;;;0.63;;
76310;SDS011;65120;59.304;18.294;2023-12-20T02:57:56;12.02;;;1.55;;
76310;SDS011;65120;59.304;18.294;2023-12-20T03:00:22;6.07;;;0.65;;
76310;SDS011;65120;59.304;18.294;2023-12-20T03:02:49;4.35;;;0.85;;
76310;SDS011;65120;59.304;18.294;2023-12-20T03:05:16;5.18;;;0.77;;
76310;SDS011;65120;59.304;18.294;2023-12-20T03:07:43;6.30;;;0.50;;
76310;SDS011;65120;59.304;18.294;2023-12-20T03:10:11;7.70;;;0.40;;
76310;SDS011;65120;59.304;18.294;2023-12-20T03:12:38;7.13;;;1.13;;
76310;SDS011;65120;59.304;18.294;2023-12-20T03:15:07;8.35;;;0.70;;
76310;SDS011;65120;59.304;18.294;2023-12-20T03:17:35;12.85;;;1.00;;
76310;SDS011;65120;59.304;18.294;2023-12-20T03:20:02;9.10;;;0.38;;
76310;SDS011;65120;59.304;18.294;2023-12-20T03:22:29;4.07;;;0.50;;
76310;SDS011;65120;59.304;18.294;2023-12-20T03:24:56;5.90;;;0.60;;
76310;SDS011;65120;59.304;18.294;2023-12-20T03:27:23;5.95;;;0.30;;
76310;SDS011;65120;59.304;18.294;2023-12-20T03:29:50;3.47;;;1.15;;
76310;SDS011;65120;59.304;18.294;2023-12-20T03:32:18;9.80;;;0.43;;
76310;SDS011;65120;59.304;18.294;2023-12-20T03:34:45;8.13;;;0.82;;
76310;SDS011;65120;59.304;18.294;2023-12-20T03:37:13;6.25;;;0.82;;
76310;SDS011;65120;59.304;18.294;2023-12-20T03:39:40;2.05;;;0.20;;
76310;SDS011;65120;59.304;18.294;2023-12-20T03:42:07;6.00;;;0.82;;
76310;SDS011;65120;59.304;18.294;2023-12-20T03:44:34;9.30;;;0.50;;
76310;SDS011;65120;59.304;18.294;2023-12-20T03:47:01;10.05;;;0.60;;
76310;SDS011;65120;59.304;18.294;2023-12-20T03:49:29;6.65;;;0.80;;
76310;SDS011;65120;59.304;18.294;2023-12-20T03:51:56;2.72;;;0.40;;
76310;SDS011;65120;59.304;18.294;2023-12-20T03:54:23;4.68;;;0.70;;
76310;SDS011;65120;59.304;18.294;2023-12-20T03:56:50;7.72;;;0.77;;
76310;SDS011;65120;59.304;18.294;2023-12-20T03:59:17;17.10;;;1.17;;
76310;SDS011;65120;59.304;18.294;2023-12-20T04:01:44;8.52;;;0.25;;
76310;SDS011;65120;59.304;18.294;2023-12-20T04:04:11;7.00;;;0.40;;
76310;SDS011;65120;59.304;18.294;2023-12-20T04:06:40;4.05;;;0.30;;
76310;SDS011;65120;59.304;18.294;2023-12-20T04:09:07;4.93;;;0.35;;
76310;SDS011;65120;59.304;18.294;2023-12-20T04:11:36;4.38;;;0.40;;
76310;SDS011;65120;59.304;18.294;2023-12-20T04:14:03;7.10;;;0.88;;
76310;SDS011;65120;59.304;18.294;2023-12-20T04:16:30;8.35;;;0.60;;
76310;SDS011;65120;59.304;18.294;2023-12-20T04:18:57;4.88;;;0.52;;
76310;SDS011;65120;59.304;18.294;2023-12-20T04:21:24;8.43;;;1.10;;
76310;SDS011;65120;59.304;18.294;2023-12-20T04:23:53;7.57;;;1.27;;
76310;SDS011;65120;59.304;18.294;2023-12-20T04:26:19;5.00;;;0.70;;
76310;SDS011;65120;59.304;18.294;2023-12-20T04:28:46;6.82;;;0.63;;
76310;SDS011;65120;59.304;18.294;2023-12-20T04:31:13;10.75;;;1.08;;
76310;SDS011;65120;59.304;18.294;2023-12-20T04:33:40;6.50;;;1.00;;
76310;SDS011;65120;59.304;18.294;2023-12-20T04:36:07;4.13;;;0.47;;
76310;SDS011;65120;59.304;18.294;2023-12-20T04:38:35;5.53;;;0.85;;
76310;SDS011;65120;59.304;18.294;2023-12-20T04:41:03;10.90;;;1.30;;
76310;SDS011;65120;59.304;18.294;2023-12-20T04:43:30;12.13;;;1.13;;
76310;SDS011;65120;59.304;18.294;2023-12-20T04:45:58;6.32;;;1.30;;
76310;SDS011;65120;59.304;18.294;2023-12-20T04:48:25;8.05;;;1.30;;
76310;SDS011;65120;59.304;18.294;2023-12-20T04:50:52;8.82;;;1.67;;
76310;SDS011;65120;59.304;18.294;2023-12-20T04:53:19;7.47;;;1.60;;
76310;SDS011;65120;59.304;18.294;2023-12-20T04:55:46;8.07;;;1.98;;
76310;SDS011;65120;59.304;18.294;2023-12-20T04:58:14;9.02;;;1.48;;
76310;SDS011;65120;59.304;18.294;2023-12-20T05:00:41;6.10;;;0.85;;
76310;SDS011;65120;59.304;18.294;2023-12-20T05:03:08;5.32;;;1.00;;
76310;SDS011;65120;59.304;18.294;2023-12-20T05:05:35;4.65;;;0.80;;
76310;SDS011;65120;59.304;18.294;2023-12-20T05:08:02;3.40;;;0.88;;
76310;SDS011;65120;59.304;18.294;2023-12-20T05:10:30;5.57;;;0.98;;
76310;SDS011;65120;59.304;18.294;2023-12-20T05:12:57;6.97;;;1.52;;
76310;SDS011;65120;59.304;18.294;2023-12-20T05:15:25;6.90;;;0.80;;
76310;SDS011;65120;59.304;18.294;2023-12-20T05:17:52;8.70;;;2.65;;
76310;SDS011;65120;59.304;18.294;2023-12-20T05:20:19;9.02;;;1.08;;
76310;SDS011;65120;59.304;18.294;2023-12-20T05:22:46;10.50;;;1.45;;
76310;SDS011;65120;59.304;18.294;2023-12-20T05:25:13;8.85;;;0.68;;
76310;SDS011;65120;59.304;18.294;2023-12-20T05:27:40;4.55;;;0.70;;
76310;SDS011;65120;59.304;18.294;2023-12-20T05:30:07;6.60;;;0.95;;
76310;SDS011;65120;59.304;18.294;2023-12-20T05:32:36;5.32;;;0.52;;
76310;SDS011;65120;59.304;18.294;2023-12-20T05:35:03;7.93;;;0.55;;
76310;SDS011;65120;59.304;18.294;2023-12-20T05:37:30;6.47;;;1.08;;
76310;SDS011;65120;59.304;18.294;2023-12-20T05:39:57;3.83;;;0.85;;
76310;SDS011;65120;59.304;18.294;2023-12-20T05:42:24;8.10;;;0.75;;
76310;SDS011;65120;59.304;18.294;2023-12-20T05:44:51;5.15;;;1.38;;
76310;SDS011;65120;59.304;18.294;2023-12-20T05:47:18;3.75;;;0.70;;
76310;SDS011;65120;59.304;18.294;2023-12-20T05:49:47;5.10;;;1.05;;
76310;SDS011;65120;59.304;18.294;2023-12-20T05:52:15;4.68;;;0.68;;
76310;SDS011;65120;59.304;18.294;2023-12-20T05:54:42;5.32;;;1.33;;
76310;SDS011;65120;59.304;18.294;2023-12-20T05:57:09;5.03;;;0.93;;
76310;SDS011;65120;59.304;18.294;2023-12-20T05:59:36;6.18;;;1.63;;
76310;SDS011;65120;59.304;18.294;2023-12-20T06:02:03;7.85;;;1.10;;
76310;SDS011;65120;59.304;18.294;2023-12-20T06:04:30;7.75;;;1.50;;
76310;SDS011;65120;59.304;18.294;2023-12-20T06:06:58;5.93;;;1.33;;
76310;SDS011;65120;59.304;18.294;2023-12-20T06:09:26;3.78;;;0.75;;
76310;SDS011;65120;59.304;18.294;2023-12-20T06:11:53;10.82;;;1.75;;
76310;SDS011;65120;59.304;18.294;2023-12-20T06:14:20;10.65;;;1.88;;
76310;SDS011;65120;59.304;18.294;2023-12-20T06:16:47;7.95;;;2.55;;
76310;SDS011;65120;59.304;18.294;2023-12-20T06:19:14;10.85;;;2.15;;
76310;SDS011;65120;59.304;18.294;2023-12-20T06:21:41;10.05;;;1.80;;
76310;SDS011;65120;59.304;18.294;2023-12-20T06:24:09;6.97;;;1.95;;
76310;SDS011;65120;59.304;18.294;2023-12-20T06:26:36;8.07;;;1.65;;
76310;SDS011;65120;59.304;18.294;2023-12-20T06:29:03;3.42;;;2.20;;
76310;SDS011;65120;59.304;18.294;2023-12-20T06:31:30;5.80;;;1.48;;
76310;SDS011;65120;59.304;18.294;2023-12-20T06:33:58;8.05;;;2.40;;
76310;SDS011;65120;59.304;18.294;2023-12-20T06:36:25;14.68;;;2.80;;
76310;SDS011;65120;59.304;18.294;2023-12-20T06:38:52;7.88;;;1.88;;
76310;SDS011;65120;59.304;18.294;2023-12-20T06:41:20;7.53;;;1.52;;
76310;SDS011;65120;59.304;18.294;2023-12-20T06:43:49;9.20;;;1.88;;
76310;SDS011;65120;59.304;18.294;2023-12-20T06:46:17;7.28;;;2.53;;
76310;SDS011;65120;59.304;18.294;2023-12-20T06:48:44;6.68;;;1.75;;
76310;SDS011;65120;59.304;18.294;2023-12-20T06:51:12;8.75;;;2.33;;
76310;SDS011;65120;59.304;18.294;2023-12-20T06:53:41;8.38;;;1.75;;
76310;SDS011;65120;59.304;18.294;2023-12-20T06:56:08;8.07;;;1.67;;
76310;SDS011;65120;59.304;18.294;2023-12-20T06:58:38;5.72;;;1.95;;
76310;SDS011;65120;59.304;18.294;2023-12-20T07:01:05;8.43;;;1.60;;
76310;SDS011;65120;59.304;18.294;2023-12-20T07:03:32;4.20;;;1.45;;
76310;SDS011;65120;59.304;18.294;2023-12-20T07:05:58;4.43;;;1.65;;
76310;SDS011;65120;59.304;18.294;2023-12-20T07:08:25;11.27;;;1.67;;
76310;SDS011;65120;59.304;18.294;2023-12-20T07:10:53;3.97;;;1.08;;
76310;SDS011;65120;59.304;18.294;2023-12-20T07:13:19;9.45;;;1.00;;
76310;SDS011;65120;59.304;18.294;2023-12-20T07:15:48;3.17;;;0.70;;
76310;SDS011;65120;59.304;18.294;2023-12-20T07:18:15;4.57;;;1.08;;
76310;SDS011;65120;59.304;18.294;2023-12-20T07:20:42;2.28;;;0.70;;
76310;SDS011;65120;59.304;18.294;2023-12-20T07:23:09;5.30;;;0.90;;
76310;SDS011;65120;59.304;18.294;2023-12-20T07:25:36;1.83;;;0.80;;
76310;SDS011;65120;59.304;18.294;2023-12-20T07:28:03;1.73;;;0.73;;
76310;SDS011;65120;59.304;18.294;2023-12-20T07:30:31;1.80;;;0.50;;
76310;SDS011;65120;59.304;18.294;2023-12-20T07:32:59;3.60;;;0.95;;
76310;SDS011;65120;59.304;18.294;2023-12-20T07:35:27;4.35;;;0.85;;
76310;SDS011;65120;59.304;18.294;2023-12-20T07:37:54;2.22;;;0.57;;
76310;SDS011;65120;59.304;18.294;2023-12-20T07:40:21;5.18;;;0.68;;
76310;SDS011;65120;59.304;18.294;2023-12-20T07:42:49;2.22;;;0.68;;
76310;SDS011;65120;59.304;18.294;2023-12-20T07:45:16;2.03;;;0.60;;
76310;SDS011;65120;59.304;18.294;2023-12-20T07:47:43;3.63;;;0.93;;
76310;SDS011;65120;59.304;18.294;2023-12-20T07:50:11;3.95;;;0.73;;
76310;SDS011;65120;59.304;18.294;2023-12-20T07:52:38;3.53;;;1.08;;
76310;SDS011;65120;59.304;18.294;2023-12-20T07:55:05;3.95;;;1.15;;
76310;SDS011;65120;59.304;18.294;2023-12-20T07:57:33;4.57;;;0.95;;
76310;SDS011;65120;59.304;18.294;2023-12-20T08:00:00;5.45;;;1.10;;
76310;SDS011;65120;59.304;18.294;2023-12-20T08:02:28;8.25;;;1.20;;
76310;SDS011;65120;59.304;18.294;2023-12-20T08:04:55;5.30;;;1.10;;
76310;SDS011;65120;59.304;18.294;2023-12-20T08:07:24;4.28;;;1.20;;
76310;SDS011;65120;59.304;18.294;2023-12-20T08:09:50;6.80;;;1.50;;
76310;SDS011;65120;59.304;18.294;2023-12-20T08:12:20;5.57;;;0.88;;
76310;SDS011;65120;59.304;18.294;2023-12-20T08:14:47;5.25;;;1.50;;
76310;SDS011;65120;59.304;18.294;2023-12-20T08:17:13;9.02;;;1.15;;
76310;SDS011;65120;59.304;18.294;2023-12-20T08:19:43;8.48;;;1.70;;
76310;SDS011;65120;59.304;18.294;2023-12-20T08:22:13;7.40;;;1.60;;
76310;SDS011;65120;59.304;18.294;2023-12-20T08:24:41;6.15;;;1.83;;
76310;SDS011;65120;59.304;18.294;2023-12-20T08:27:08;6.10;;;1.58;;
76310;SDS011;65120;59.304;18.294;2023-12-20T08:29:35;8.70;;;1.35;;
76310;SDS011;65120;59.304;18.294;2023-12-20T08:32:02;9.30;;;1.73;;
76310;SDS011;65120;59.304;18.294;2023-12-20T08:34:30;8.43;;;1.70;;
76310;SDS011;65120;59.304;18.294;2023-12-20T08:36:57;5.43;;;1.50;;
76310;SDS011;65120;59.304;18.294;2023-12-20T08:39:24;10.75;;;2.35;;
76310;SDS011;65120;59.304;18.294;2023-12-20T08:41:52;11.82;;;1.98;;
76310;SDS011;65120;59.304;18.294;2023-12-20T08:44:19;8.20;;;2.20;;
76310;SDS011;65120;59.304;18.294;2023-12-20T08:46:47;4.63;;;1.25;;
76310;SDS011;65120;59.304;18.294;2023-12-20T08:49:14;13.93;;;3.45;;
76310;SDS011;65120;59.304;18.294;2023-12-20T08:51:44;5.25;;;1.65;;
76310;SDS011;65120;59.304;18.294;2023-12-20T08:54:13;3.28;;;0.80;;
76310;SDS011;65120;59.304;18.294;2023-12-20T08:56:41;4.35;;;0.70;;
76310;SDS011;65120;59.304;18.294;2023-12-20T08:59:10;2.90;;;0.85;;
76310;SDS011;65120;59.304;18.294;2023-12-20T09:01:37;3.42;;;1.77;;
76310;SDS011;65120;59.304;18.294;2023-12-20T09:04:04;8.07;;;1.08;;
76310;SDS011;65120;59.304;18.294;2023-12-20T09:06:31;11.27;;;1.33;;
76310;SDS011;65120;59.304;18.294;2023-12-20T09:08:58;3.83;;;0.70;;
76310;SDS011;65120;59.304;18.294;2023-12-20T09:11:25;4.30;;;0.80;;
76310;SDS011;65120;59.304;18.294;2023-12-20T09:13:52;1.85;;;0.70;;
76310;SDS011;65120;59.304;18.294;2023-12-20T09:16:27;4.80;;;1.50;;
76310;SDS011;65120;59.304;18.294;2023-12-20T09:18:54;6.55;;;0.93;;
76310;SDS011;65120;59.304;18.294;2023-12-20T09:21:21;5.68;;;0.90;;
76310;SDS011;65120;59.304;18.294;2023-12-20T09:23:48;4.82;;;0.73;;
76310;SDS011;65120;59.304;18.294;2023-12-20T09:26:15;2.67;;;0.90;;
76310;SDS011;65120;59.304;18.294;2023-12-20T09:28:42;6.00;;;0.70;;
76310;SDS011;65120;59.304;18.294;2023-12-20T09:31:09;6.38;;;0.90;;
76310;SDS011;65120;59.304;18.294;2023-12-20T09:33:37;5.78;;;0.60;;
76310;SDS011;65120;59.304;18.294;2023-12-20T09:36:04;3.38;;;0.60;;
76310;SDS011;65120;59.304;18.294;2023-12-20T09:38:32;2.70;;;0.52;;
76310;SDS011;65120;59.304;18.294;2023-12-20T09:40:59;2.95;;;0.60;;
76310;SDS011;65120;59.304;18.294;2023-12-20T09:43:29;5.20;;;1.15;;
76310;SDS011;65120;59.304;18.294;2023-12-20T09:45:58;5.53;;;0.70;;
76310;SDS011;65120;59.304;18.294;2023-12-20T09:48:27;5.25;;;0.60;;
76310;SDS011;65120;59.304;18.294;2023-12-20T09:50:56;4.00;;;0.70;;
76310;SDS011;65120;59.304;18.294;2023-12-20T09:53:23;12.27;;;1.23;;
76310;SDS011;65120;59.304;18.294;2023-12-20T09:55:55;2.70;;;1.13;;
76310;SDS011;65120;59.304;18.294;2023-12-20T09:58:24;6.78;;;0.65;;
76310;SDS011;65120;59.304;18.294;2023-12-20T10:00:51;1.33;;;0.57;;
76310;SDS011;65120;59.304;18.294;2023-12-20T10:03:19;4.93;;;0.50;;
76310;SDS011;65120;59.304;18.294;2023-12-20T10:05:52;4.03;;;0.50;;
76310;SDS011;65120;59.304;18.294;2023-12-20T10:08:23;7.68;;;2.10;;
76310;SDS011;65120;59.304;18.294;2023-12-20T10:10:50;5.65;;;0.55;;
76310;SDS011;65120;59.304;18.294;2023-12-20T10:13:18;3.90;;;0.50;;
76310;SDS011;65120;59.304;18.294;2023-12-20T10:15:45;5.30;;;0.73;;
76310;SDS011;65120;59.304;18.294;2023-12-20T10:18:12;2.45;;;0.40;;
76310;SDS011;65120;59.304;18.294;2023-12-20T10:20:40;3.55;;;0.65;;
76310;SDS011;65120;59.304;18.294;2023-12-20T10:23:07;9.57;;;0.90;;
76310;SDS011;65120;59.304;18.294;2023-12-20T10:25:36;8.35;;;0.60;;
76310;SDS011;65120;59.304;18.294;2023-12-20T10:28:09;3.35;;;0.40;;
76310;SDS011;65120;59.304;18.294;2023-12-20T10:30:37;2.90;;;0.30;;
76310;SDS011;65120;59.304;18.294;2023-12-20T10:33:05;3.13;;;0.40;;
76310;SDS011;65120;59.304;18.294;2023-12-20T10:35:32;3.90;;;0.40;;
76310;SDS011;65120;59.304;18.294;2023-12-20T10:37:59;5.97;;;0.65;;
76310;SDS011;65120;59.304;18.294;2023-12-20T10:40:30;6.55;;;0.40;;
76310;SDS011;65120;59.304;18.294;2023-12-20T10:42:59;3.15;;;0.60;;
76310;SDS011;65120;59.304;18.294;2023-12-20T10:45:28;5.88;;;1.35;;
76310;SDS011;65120;59.304;18.294;2023-12-20T10:47:55;2.55;;;0.40;;
76310;SDS011;65120;59.304;18.294;2023-12-20T10:50:25;2.95;;;1.13;;
76310;SDS011;65120;59.304;18.294;2023-12-20T10:52:54;3.42;;;0.35;;
76310;SDS011;65120;59.304;18.294;2023-12-20T10:55:21;4.20;;;0.30;;
76310;SDS011;65120;59.304;18.294;2023-12-20T10:57:49;1.73;;;0.30;;
76310;SDS011;65120;59.304;18.294;2023-12-20T11:00:19;6.80;;;0.35;;
76310;SDS011;65120;59.304;18.294;2023-12-20T11:02:49;6.95;;;0.52;;
76310;SDS011;65120;59.304;18.294;2023-12-20T11:05:20;5.30;;;0.63;;
76310;SDS011;65120;59.304;18.294;2023-12-20T11:07:56;8.85;;;0.77;;
76310;SDS011;65120;59.304;18.294;2023-12-20T11:10:29;4.05;;;0.50;;
76310;SDS011;65120;59.304;18.294;2023-12-20T11:13:05;6.15;;;1.27;;
76310;SDS011;65120;59.304;18.294;2023-12-20T11:15:39;8.70;;;0.30;;
76310;SDS011;65120;59.304;18.294;2023-12-20T11:18:06;2.30;;;0.45;;
76310;SDS011;65120;59.304;18.294;2023-12-20T11:20:37;6.20;;;0.40;;
76310;SDS011;65120;59.304;18.294;2023-12-20T11:23:11;4.15;;;0.43;;
76310;SDS011;65120;59.304;18.294;2023-12-20T11:25:47;7.13;;;0.43;;
76310;SDS011;65120;59.304;18.294;2023-12-20T11:28:15;8.27;;;0.80;;
76310;SDS011;65120;59.304;18.294;2023-12-20T11:30:50;0.93;;;0.30;;
76310;SDS011;65120;59.304;18.294;2023-12-20T11:33:20;6.53;;;1.00;;
76310;SDS011;65120;59.304;18.294;2023-12-20T11:35:48;3.42;;;0.25;;
76310;SDS011;65120;59.304;18.294;2023-12-20T11:38:15;4.32;;;0.30;;
76310;SDS011;65120;59.304;18.294;2023-12-20T11:40:42;4.85;;;0.95;;
76310;SDS011;65120;59.304;18.294;2023-12-20T11:43:10;8.13;;;0.20;;
76310;SDS011;65120;59.304;18.294;2023-12-20T11:45:37;5.72;;;0.22;;
76310;SDS011;65120;59.304;18.294;2023-12-20T11:48:05;3.28;;;0.68;;
76310;SDS011;65120;59.304;18.294;2023-12-20T11:50:33;4.38;;;0.63;;
76310;SDS011;65120;59.304;18.294;2023-12-20T11:53:00;0.65;;;0.30;;
76310;SDS011;65120;59.304;18.294;2023-12-20T11:55:27;3.45;;;0.38;;
76310;SDS011;65120;59.304;18.294;2023-12-20T11:57:54;5.55;;;0.85;;
76310;SDS011;65120;59.304;18.294;2023-12-20T12:00:21;8.35;;;0.30;;
76310;SDS011;65120;59.304;18.294;2023-12-20T12:02:55;2.55;;;0.30;;
76310;SDS011;65120;59.304;18.294;2023-12-20T12:05:24;6.78;;;0.40;;
76310;SDS011;65120;59.304;18.294;2023-12-20T12:07:51;3.15;;;0.30;;
76310;SDS011;65120;59.304;18.294;2023-12-20T12:10:18;3.13;;;0.35;;
76310;SDS011;65120;59.304;18.294;2023-12-20T12:12:45;2.63;;;0.30;;
76310;SDS011;65120;59.304;18.294;2023-12-20T12:15:13;3.05;;;0.32;;
76310;SDS011;65120;59.304;18.294;2023-12-20T12:17:41;3.70;;;0.35;;
76310;SDS011;65120;59.304;18.294;2023-12-20T12:20:08;2.10;;;0.30;;
76310;SDS011;65120;59.304;18.294;2023-12-20T12:22:37;3.63;;;0.20;;
76310;SDS011;65120;59.304;18.294;2023-12-20T12:25:10;5.10;;;0.20;;
76310;SDS011;65120;59.304;18.294;2023-12-20T12:27:39;2.70;;;0.13;;
76310;SDS011;65120;59.304;18.294;2023-12-20T12:30:07;1.17;;;0.30;;
76310;SDS011;65120;59.304;18.294;2023-12-20T12:32:38;2.15;;;0.10;;
76310;SDS011;65120;59.304;18.294;2023-12-20T12:35:05;0.95;;;0.17;;
76310;SDS011;65120;59.304;18.294;2023-12-20T12:37:34;0.82;;;0.10;;
76310;SDS011;65120;59.304;18.294;2023-12-20T12:40:03;0.50;;;0.10;;
76310;SDS011;65120;59.304;18.294;2023-12-20T12:42:30;0.30;;;0.10;;
76310;SDS011;65120;59.304;18.294;2023-12-20T12:44:57;0.20;;;0.00;;
76310;SDS011;65120;59.304;18.294;2023-12-20T12:47:24;0.30;;;0.10;;
76310;SDS011;65120;59.304;18.294;2023-12-20T12:49:51;1.08;;;0.00;;
76310;SDS011;65120;59.304;18.294;2023-12-20T12:52:17;1.05;;;0.00;;
76310;SDS011;65120;59.304;18.294;2023-12-20T12:54:44;0.45;;;0.00;;
76310;SDS011;65120;59.304;18.294;2023-12-20T12:57:13;0.10;;;0.00;;
76310;SDS011;65120;59.304;18.294;2023-12-20T12:59:41;0.10;;;0.00;;
76310;SDS011;65120;59.304;18.294;2023-12-20T13:02:09;1.85;;;0.00;;
76310;SDS011;65120;59.304;18.294;2023-12-20T13:04:36;0.10;;;0.00;;
76310;SDS011;65120;59.304;18.294;2023-12-20T13:07:03;0.05;;;0.00;;
76310;SDS011;65120;59.304;18.294;2023-12-20T13:09:30;0.00;;;0.00;;
76310;SDS011;65120;59.304;18.294;2023-12-20T13:11:57;0.47;;;0.10;;
76310;SDS011;65120;59.304;18.294;2023-12-20T13:14:25;1.13;;;0.10;;
76310;SDS011;65120;59.304;18.294;2023-12-20T13:16:52;0.20;;;0.00;;
76310;SDS011;65120;59.304;18.294;2023-12-20T13:19:19;0.60;;;0.00;;
76310;SDS011;65120;59.304;18.294;2023-12-20T13:21:46;0.75;;;0.00;;
76310;SDS011;65120;59.304;18.294;2023-12-20T13:24:13;0.68;;;0.00;;
76310;SDS011;65120;59.304;18.294;2023-12-20T13:26:40;0.80;;;0.00;;
76310;SDS011;65120;59.304;18.294;2023-12-20T13:29:08;1.77;;;0.10;;
76310;SDS011;65120;59.304;18.294;2023-12-20T13:31:36;0.28;;;0.00;;
76310;SDS011;65120;59.304;18.294;2023-12-20T13:34:03;1.70;;;0.10;;
76310;SDS011;65120;59.304;18.294;2023-12-20T13:36:30;1.85;;;0.05;;
76310;SDS011;65120;59.304;18.294;2023-12-20T13:38:57;0.35;;;0.20;;
76310;SDS011;65120;59.304;18.294;2023-12-20T13:41:24;0.52;;;0.10;;
76310;SDS011;65120;59.304;18.294;2023-12-20T13:43:51;0.85;;;0.40;;
76310;SDS011;65120;59.304;18.294;2023-12-20T13:46:19;1.50;;;0.30;;
76310;SDS011;65120;59.304;18.294;2023-12-20T13:48:47;0.85;;;0.40;;
76310;SDS011;65120;59.304;18.294;2023-12-20T13:51:14;0.10;;;0.10;;
76310;SDS011;65120;59.304;18.294;2023-12-20T13:53:41;1.13;;;0.30;;
76310;SDS011;65120;59.304;18.294;2023-12-20T13:56:08;1.75;;;0.30;;
76310;SDS011;65120;59.304;18.294;2023-12-20T13:58:35;0.32;;;0.10;;
76310;SDS011;65120;59.304;18.294;2023-12-20T14:01:02;0.57;;;0.10;;
76310;SDS011;65120;59.304;18.294;2023-12-20T14:03:29;0.68;;;0.10;;
76310;SDS011;65120;59.304;18.294;2023-12-20T14:05:58;0.50;;;0.10;;
76310;SDS011;65120;59.304;18.294;2023-12-20T14:08:26;0.10;;;0.05;;
76310;SDS011;65120;59.304;18.294;2023-12-20T14:10:53;0.55;;;0.10;;
76310;SDS011;65120;59.304;18.294;2023-12-20T14:13:19;0.95;;;0.50;;
76310;SDS011;65120;59.304;18.294;2023-12-20T14:15:47;0.20;;;0.10;;
76310;SDS011;65120;59.304;18.294;2023-12-20T14:18:14;0.30;;;0.10;;
76310;SDS011;65120;59.304;18.294;2023-12-20T14:20:42;0.43;;;0.30;;
76310;SDS011;65120;59.304;18.294;2023-12-20T14:23:11;0.38;;;0.20;;
76310;SDS011;65120;59.304;18.294;2023-12-20T14:25:39;3.40;;;0.20;;
76310;SDS011;65120;59.304;18.294;2023-12-20T14:28:07;0.17;;;0.10;;
76310;SDS011;65120;59.304;18.294;2023-12-20T14:30:35;1.92;;;0.13;;
76310;SDS011;65120;59.304;18.294;2023-12-20T14:33:03;0.68;;;0.10;;
76310;SDS011;65120;59.304;18.294;2023-12-20T14:35:30;1.60;;;0.20;;